sensor_id;sensor_type;location;lat;lon;timestamp;P1;durP1;ratioP1;P2;durP2;ratioP2
56307;SDS011;42217;50.422;7.210;2022-07-11T00:02:44;4.53;;;1.70;;
56307;SDS011;42217;50.422;7.210;2022-07-11T00:05:10;2.50;;;1.40;;
56307;SDS011;42217;50.422;7.210;2022-07-11T00:07:36;2.50;;;1.80;;
56307;SDS011;42217;50.422;7.210;2022-07-11T00:10:03;9.68;;;1.85;;
56307;SDS011;42217;50.422;7.210;2022-07-11T00:12:29;5.53;;;1.40;;
56307;SDS011;42217;50.422;7.210;2022-07-11T00:14:55;2.35;;;1.90;;
56307;SDS011;42217;50.422;7.210;2022-07-11T00:17:21;9.95;;;1.88;;
56307;SDS011;42217;50.422;7.210;2022-07-11T00:19:48;2.50;;;1.40;;
56307;SDS011;42217;50.422;7.210;2022-07-11T00:22:14;4.45;;;1.33;;
56307;SDS011;42217;50.422;7.210;2022-07-11T00:24:40;8.77;;;1.83;;
56307;SDS011;42217;50.422;7.210;2022-07-11T00:27:06;6.65;;;2.03;;
56307;SDS011;42217;50.422;7.210;2022-07-11T00:29:32;5.43;;;1.73;;
56307;SDS011;42217;50.422;7.210;2022-07-11T00:31:58;1.50;;;1.40;;
56307;SDS011;42217;50.422;7.210;2022-07-11T00:34:24;3.30;;;1.90;;
56307;SDS011;42217;50.422;7.210;2022-07-11T00:36:50;2.15;;;1.55;;
56307;SDS011;42217;50.422;7.210;2022-07-11T00:39:16;3.75;;;1.52;;
56307;SDS011;42217;50.422;7.210;2022-07-11T00:41:42;6.28;;;1.48;;
56307;SDS011;42217;50.422;7.210;2022-07-11T00:44:08;2.20;;;1.85;;
56307;SDS011;42217;50.422;7.210;2022-07-11T00:46:35;3.38;;;2.38;;
56307;SDS011;42217;50.422;7.210;2022-07-11T00:49:00;6.00;;;1.98;;
56307;SDS011;42217;50.422;7.210;2022-07-11T00:51:27;7.57;;;1.67;;
56307;SDS011;42217;50.422;7.210;2022-07-11T00:53:56;4.38;;;1.58;;
56307;SDS011;42217;50.422;7.210;2022-07-11T00:56:23;2.78;;;1.50;;
56307;SDS011;42217;50.422;7.210;2022-07-11T00:58:51;5.13;;;1.42;;
56307;SDS011;42217;50.422;7.210;2022-07-11T01:01:19;5.28;;;1.38;;
56307;SDS011;42217;50.422;7.210;2022-07-11T01:03:45;4.38;;;2.17;;
56307;SDS011;42217;50.422;7.210;2022-07-11T01:06:12;3.95;;;1.80;;
56307;SDS011;42217;50.422;7.210;2022-07-11T01:08:38;6.65;;;1.60;;
56307;SDS011;42217;50.422;7.210;2022-07-11T01:11:05;5.32;;;2.00;;
56307;SDS011;42217;50.422;7.210;2022-07-11T01:13:35;4.93;;;1.90;;
56307;SDS011;42217;50.422;7.210;2022-07-11T01:16:17;4.28;;;1.77;;
56307;SDS011;42217;50.422;7.210;2022-07-11T01:18:45;5.15;;;1.77;;
56307;SDS011;42217;50.422;7.210;2022-07-11T01:21:25;2.17;;;1.38;;
56307;SDS011;42217;50.422;7.210;2022-07-11T01:23:57;5.82;;;2.70;;
56307;SDS011;42217;50.422;7.210;2022-07-11T01:26:24;5.22;;;1.83;;
56307;SDS011;42217;50.422;7.210;2022-07-11T01:28:50;3.72;;;1.63;;
56307;SDS011;42217;50.422;7.210;2022-07-11T01:31:17;5.07;;;1.50;;
56307;SDS011;42217;50.422;7.210;2022-07-11T01:33:44;7.43;;;2.17;;
56307;SDS011;42217;50.422;7.210;2022-07-11T01:36:10;6.30;;;1.90;;
56307;SDS011;42217;50.422;7.210;2022-07-11T01:38:37;5.63;;;2.55;;
56307;SDS011;42217;50.422;7.210;2022-07-11T01:41:03;2.45;;;2.00;;
56307;SDS011;42217;50.422;7.210;2022-07-11T01:43:29;5.72;;;2.03;;
56307;SDS011;42217;50.422;7.210;2022-07-11T01:45:56;2.75;;;1.52;;
56307;SDS011;42217;50.422;7.210;2022-07-11T01:48:22;4.88;;;1.80;;
56307;SDS011;42217;50.422;7.210;2022-07-11T01:50:48;4.05;;;2.00;;
56307;SDS011;42217;50.422;7.210;2022-07-11T01:53:14;5.68;;;2.70;;
56307;SDS011;42217;50.422;7.210;2022-07-11T01:55:41;3.10;;;1.58;;
56307;SDS011;42217;50.422;7.210;2022-07-11T01:58:07;6.75;;;2.05;;
56307;SDS011;42217;50.422;7.210;2022-07-11T02:00:33;6.20;;;2.40;;
56307;SDS011;42217;50.422;7.210;2022-07-11T02:02:59;5.63;;;2.22;;
56307;SDS011;42217;50.422;7.210;2022-07-11T02:05:25;4.93;;;3.05;;
56307;SDS011;42217;50.422;7.210;2022-07-11T02:07:51;4.18;;;2.40;;
56307;SDS011;42217;50.422;7.210;2022-07-11T02:10:35;10.27;;;3.28;;
56307;SDS011;42217;50.422;7.210;2022-07-11T02:13:02;5.72;;;2.63;;
56307;SDS011;42217;50.422;7.210;2022-07-11T02:15:28;5.30;;;2.28;;
56307;SDS011;42217;50.422;7.210;2022-07-11T02:17:55;5.10;;;2.60;;
56307;SDS011;42217;50.422;7.210;2022-07-11T02:20:23;6.47;;;2.63;;
56307;SDS011;42217;50.422;7.210;2022-07-11T02:22:49;5.63;;;2.55;;
56307;SDS011;42217;50.422;7.210;2022-07-11T02:25:15;5.70;;;2.95;;
56307;SDS011;42217;50.422;7.210;2022-07-11T02:27:41;7.05;;;2.33;;
56307;SDS011;42217;50.422;7.210;2022-07-11T02:30:08;3.35;;;2.45;;
56307;SDS011;42217;50.422;7.210;2022-07-11T02:32:34;6.80;;;2.47;;
56307;SDS011;42217;50.422;7.210;2022-07-11T02:35:00;3.47;;;2.28;;
56307;SDS011;42217;50.422;7.210;2022-07-11T02:37:25;3.25;;;2.50;;
56307;SDS011;42217;50.422;7.210;2022-07-11T02:39:51;7.60;;;2.22;;
56307;SDS011;42217;50.422;7.210;2022-07-11T02:42:17;6.57;;;3.13;;
56307;SDS011;42217;50.422;7.210;2022-07-11T02:44:45;10.13;;;2.65;;
56307;SDS011;42217;50.422;7.210;2022-07-11T02:47:11;5.90;;;2.33;;
56307;SDS011;42217;50.422;7.210;2022-07-11T02:49:39;3.60;;;2.53;;
56307;SDS011;42217;50.422;7.210;2022-07-11T02:52:05;5.43;;;2.78;;
56307;SDS011;42217;50.422;7.210;2022-07-11T02:54:31;4.55;;;2.95;;
56307;SDS011;42217;50.422;7.210;2022-07-11T02:56:57;6.38;;;2.92;;
56307;SDS011;42217;50.422;7.210;2022-07-11T02:59:23;6.85;;;3.22;;
56307;SDS011;42217;50.422;7.210;2022-07-11T03:01:49;11.95;;;3.80;;
56307;SDS011;42217;50.422;7.210;2022-07-11T03:04:15;9.43;;;4.30;;
56307;SDS011;42217;50.422;7.210;2022-07-11T03:06:42;6.88;;;2.50;;
56307;SDS011;42217;50.422;7.210;2022-07-11T03:09:08;7.28;;;3.33;;
56307;SDS011;42217;50.422;7.210;2022-07-11T03:11:35;6.38;;;2.85;;
56307;SDS011;42217;50.422;7.210;2022-07-11T03:18:00;5.53;;;2.78;;
56307;SDS011;42217;50.422;7.210;2022-07-11T03:27:45;8.77;;;4.30;;
56307;SDS011;42217;50.422;7.210;2022-07-11T03:34:16;13.02;;;3.80;;
56307;SDS011;42217;50.422;7.210;2022-07-11T03:37:36;6.45;;;3.38;;
56307;SDS011;42217;50.422;7.210;2022-07-11T03:44:28;7.88;;;3.50;;
56307;SDS011;42217;50.422;7.210;2022-07-11T03:48:15;8.80;;;4.57;;
56307;SDS011;42217;50.422;7.210;2022-07-11T03:50:48;9.20;;;5.00;;
56307;SDS011;42217;50.422;7.210;2022-07-11T03:53:17;5.38;;;4.32;;
56307;SDS011;42217;50.422;7.210;2022-07-11T03:56:44;5.80;;;3.47;;
56307;SDS011;42217;50.422;7.210;2022-07-11T04:13:56;14.68;;;4.15;;
56307;SDS011;42217;50.422;7.210;2022-07-11T04:16:22;8.23;;;3.42;;
56307;SDS011;42217;50.422;7.210;2022-07-11T04:18:48;6.55;;;3.75;;
56307;SDS011;42217;50.422;7.210;2022-07-11T04:21:14;9.48;;;4.30;;
56307;SDS011;42217;50.422;7.210;2022-07-11T04:23:39;5.72;;;3.42;;
56307;SDS011;42217;50.422;7.210;2022-07-11T04:26:05;5.28;;;3.13;;
56307;SDS011;42217;50.422;7.210;2022-07-11T04:28:31;8.70;;;3.45;;
56307;SDS011;42217;50.422;7.210;2022-07-11T04:30:57;8.95;;;3.33;;
56307;SDS011;42217;50.422;7.210;2022-07-11T04:33:23;11.38;;;4.07;;
56307;SDS011;42217;50.422;7.210;2022-07-11T04:35:49;9.93;;;4.03;;
56307;SDS011;42217;50.422;7.210;2022-07-11T04:38:15;7.75;;;4.10;;
56307;SDS011;42217;50.422;7.210;2022-07-11T04:40:42;9.98;;;3.65;;
56307;SDS011;42217;50.422;7.210;2022-07-11T04:43:07;7.78;;;3.83;;
56307;SDS011;42217;50.422;7.210;2022-07-11T04:45:33;11.27;;;4.13;;
56307;SDS011;42217;50.422;7.210;2022-07-11T04:47:59;8.90;;;5.15;;
56307;SDS011;42217;50.422;7.210;2022-07-11T04:50:26;5.80;;;3.75;;
56307;SDS011;42217;50.422;7.210;2022-07-11T04:52:52;7.68;;;5.22;;
56307;SDS011;42217;50.422;7.210;2022-07-11T04:55:18;9.23;;;3.97;;
56307;SDS011;42217;50.422;7.210;2022-07-11T04:57:44;6.63;;;5.38;;
56307;SDS011;42217;50.422;7.210;2022-07-11T05:00:10;9.13;;;5.30;;
56307;SDS011;42217;50.422;7.210;2022-07-11T05:02:36;7.43;;;4.30;;
56307;SDS011;42217;50.422;7.210;2022-07-11T05:05:03;10.60;;;5.72;;
56307;SDS011;42217;50.422;7.210;2022-07-11T05:07:29;13.52;;;5.50;;
56307;SDS011;42217;50.422;7.210;2022-07-11T05:09:55;6.75;;;4.78;;
56307;SDS011;42217;50.422;7.210;2022-07-11T05:12:22;9.20;;;4.97;;
56307;SDS011;42217;50.422;7.210;2022-07-11T05:28:38;12.20;;;4.93;;
56307;SDS011;42217;50.422;7.210;2022-07-11T05:31:04;9.82;;;5.15;;
56307;SDS011;42217;50.422;7.210;2022-07-11T05:33:30;12.88;;;7.57;;
56307;SDS011;42217;50.422;7.210;2022-07-11T05:35:55;10.95;;;6.72;;
56307;SDS011;42217;50.422;7.210;2022-07-11T05:38:21;7.85;;;6.43;;
56307;SDS011;42217;50.422;7.210;2022-07-11T05:40:47;7.82;;;6.80;;
56307;SDS011;42217;50.422;7.210;2022-07-11T05:43:18;12.43;;;7.07;;
56307;SDS011;42217;50.422;7.210;2022-07-11T05:45:44;10.45;;;7.32;;
56307;SDS011;42217;50.422;7.210;2022-07-11T05:48:10;13.43;;;8.63;;
56307;SDS011;42217;50.422;7.210;2022-07-11T05:50:35;19.08;;;9.18;;
56307;SDS011;42217;50.422;7.210;2022-07-11T05:53:01;18.10;;;11.18;;
56307;SDS011;42217;50.422;7.210;2022-07-11T05:55:28;16.52;;;10.00;;
56307;SDS011;42217;50.422;7.210;2022-07-11T05:57:54;18.83;;;11.10;;
56307;SDS011;42217;50.422;7.210;2022-07-11T06:00:20;12.73;;;9.18;;
56307;SDS011;42217;50.422;7.210;2022-07-11T06:02:50;15.60;;;9.48;;
56307;SDS011;42217;50.422;7.210;2022-07-11T06:05:16;13.70;;;9.52;;
56307;SDS011;42217;50.422;7.210;2022-07-11T06:07:42;16.65;;;9.85;;
56307;SDS011;42217;50.422;7.210;2022-07-11T06:10:30;17.65;;;10.93;;
56307;SDS011;42217;50.422;7.210;2022-07-11T06:12:57;20.23;;;13.25;;
56307;SDS011;42217;50.422;7.210;2022-07-11T06:15:23;16.10;;;11.93;;
56307;SDS011;42217;50.422;7.210;2022-07-11T06:17:49;15.35;;;11.70;;
56307;SDS011;42217;50.422;7.210;2022-07-11T06:20:15;17.25;;;11.63;;
56307;SDS011;42217;50.422;7.210;2022-07-11T06:22:41;17.80;;;11.27;;
56307;SDS011;42217;50.422;7.210;2022-07-11T06:25:07;13.38;;;10.00;;
56307;SDS011;42217;50.422;7.210;2022-07-11T06:27:34;18.42;;;10.15;;
56307;SDS011;42217;50.422;7.210;2022-07-11T06:30:00;17.75;;;9.80;;
56307;SDS011;42217;50.422;7.210;2022-07-11T06:32:26;17.00;;;10.82;;
56307;SDS011;42217;50.422;7.210;2022-07-11T06:34:53;14.48;;;9.27;;
56307;SDS011;42217;50.422;7.210;2022-07-11T06:37:19;13.57;;;8.80;;
56307;SDS011;42217;50.422;7.210;2022-07-11T06:39:44;17.23;;;11.48;;
56307;SDS011;42217;50.422;7.210;2022-07-11T06:42:10;14.52;;;9.85;;
56307;SDS011;42217;50.422;7.210;2022-07-11T06:44:36;16.27;;;10.57;;
56307;SDS011;42217;50.422;7.210;2022-07-11T06:47:02;22.10;;;10.90;;
56307;SDS011;42217;50.422;7.210;2022-07-11T06:49:28;15.32;;;10.30;;
56307;SDS011;42217;50.422;7.210;2022-07-11T06:51:53;20.65;;;11.60;;
56307;SDS011;42217;50.422;7.210;2022-07-11T06:54:19;18.17;;;10.90;;
56307;SDS011;42217;50.422;7.210;2022-07-11T06:56:45;18.05;;;10.50;;
56307;SDS011;42217;50.422;7.210;2022-07-11T06:59:11;20.23;;;12.57;;
56307;SDS011;42217;50.422;7.210;2022-07-11T07:01:36;19.60;;;11.75;;
56307;SDS011;42217;50.422;7.210;2022-07-11T07:04:02;18.38;;;11.48;;
56307;SDS011;42217;50.422;7.210;2022-07-11T07:06:28;19.00;;;13.35;;
56307;SDS011;42217;50.422;7.210;2022-07-11T07:08:54;21.13;;;12.20;;
56307;SDS011;42217;50.422;7.210;2022-07-11T07:11:19;22.80;;;11.32;;
56307;SDS011;42217;50.422;7.210;2022-07-11T07:13:45;18.50;;;11.55;;
56307;SDS011;42217;50.422;7.210;2022-07-11T07:16:12;18.60;;;10.65;;
56307;SDS011;42217;50.422;7.210;2022-07-11T07:18:38;14.48;;;10.95;;
56307;SDS011;42217;50.422;7.210;2022-07-11T07:21:06;16.27;;;11.68;;
56307;SDS011;42217;50.422;7.210;2022-07-11T07:23:32;16.23;;;10.35;;
56307;SDS011;42217;50.422;7.210;2022-07-11T07:25:58;14.48;;;9.48;;
56307;SDS011;42217;50.422;7.210;2022-07-11T07:28:23;14.80;;;9.65;;
56307;SDS011;42217;50.422;7.210;2022-07-11T07:30:53;16.95;;;10.98;;
56307;SDS011;42217;50.422;7.210;2022-07-11T07:33:19;14.95;;;10.48;;
56307;SDS011;42217;50.422;7.210;2022-07-11T07:35:45;15.52;;;11.25;;
56307;SDS011;42217;50.422;7.210;2022-07-11T07:38:11;15.48;;;10.23;;
56307;SDS011;42217;50.422;7.210;2022-07-11T07:40:38;19.17;;;11.13;;
56307;SDS011;42217;50.422;7.210;2022-07-11T07:43:03;20.92;;;11.63;;
56307;SDS011;42217;50.422;7.210;2022-07-11T07:45:29;22.00;;;12.38;;
56307;SDS011;42217;50.422;7.210;2022-07-11T07:47:55;18.98;;;12.40;;
56307;SDS011;42217;50.422;7.210;2022-07-11T07:50:21;17.70;;;13.63;;
56307;SDS011;42217;50.422;7.210;2022-07-11T07:52:48;18.25;;;13.45;;
56307;SDS011;42217;50.422;7.210;2022-07-11T07:55:13;20.30;;;14.43;;
56307;SDS011;42217;50.422;7.210;2022-07-11T07:57:39;23.67;;;14.77;;
56307;SDS011;42217;50.422;7.210;2022-07-11T08:00:14;19.58;;;13.80;;
56307;SDS011;42217;50.422;7.210;2022-07-11T08:03:07;24.20;;;15.23;;
56307;SDS011;42217;50.422;7.210;2022-07-11T08:05:34;20.75;;;14.23;;
56307;SDS011;42217;50.422;7.210;2022-07-11T08:08:00;23.35;;;14.80;;
56307;SDS011;42217;50.422;7.210;2022-07-11T08:10:28;22.00;;;15.75;;
56307;SDS011;42217;50.422;7.210;2022-07-11T08:12:57;21.10;;;14.27;;
56307;SDS011;42217;50.422;7.210;2022-07-11T08:15:26;23.88;;;16.42;;
56307;SDS011;42217;50.422;7.210;2022-07-11T08:17:52;23.33;;;17.10;;
56307;SDS011;42217;50.422;7.210;2022-07-11T08:20:18;21.10;;;16.67;;
56307;SDS011;42217;50.422;7.210;2022-07-11T08:22:44;30.45;;;18.15;;
56307;SDS011;42217;50.422;7.210;2022-07-11T08:25:10;30.67;;;16.98;;
56307;SDS011;42217;50.422;7.210;2022-07-11T08:27:40;29.10;;;16.50;;
56307;SDS011;42217;50.422;7.210;2022-07-11T08:30:18;26.27;;;17.42;;
56307;SDS011;42217;50.422;7.210;2022-07-11T08:32:53;28.92;;;17.00;;
56307;SDS011;42217;50.422;7.210;2022-07-11T08:35:42;26.00;;;17.27;;
56307;SDS011;42217;50.422;7.210;2022-07-11T08:38:08;28.23;;;18.30;;
56307;SDS011;42217;50.422;7.210;2022-07-11T08:40:37;27.00;;;17.88;;
56307;SDS011;42217;50.422;7.210;2022-07-11T08:43:13;34.20;;;17.83;;
56307;SDS011;42217;50.422;7.210;2022-07-11T08:45:46;29.27;;;18.67;;
56307;SDS011;42217;50.422;7.210;2022-07-11T08:48:24;35.78;;;18.83;;
56307;SDS011;42217;50.422;7.210;2022-07-11T08:50:57;26.60;;;17.35;;
56307;SDS011;42217;50.422;7.210;2022-07-11T08:53:29;39.78;;;20.45;;
56307;SDS011;42217;50.422;7.210;2022-07-11T08:55:57;28.60;;;18.90;;
56307;SDS011;42217;50.422;7.210;2022-07-11T08:58:45;28.13;;;17.85;;
56307;SDS011;42217;50.422;7.210;2022-07-11T09:01:17;24.83;;;16.75;;
56307;SDS011;42217;50.422;7.210;2022-07-11T09:04:03;32.33;;;17.20;;
56307;SDS011;42217;50.422;7.210;2022-07-11T09:06:40;29.35;;;17.60;;
56307;SDS011;42217;50.422;7.210;2022-07-11T09:09:08;31.13;;;18.50;;
56307;SDS011;42217;50.422;7.210;2022-07-11T09:11:51;27.65;;;17.63;;
56307;SDS011;42217;50.422;7.210;2022-07-11T09:14:30;28.63;;;17.02;;
56307;SDS011;42217;50.422;7.210;2022-07-11T09:17:02;28.48;;;17.73;;
56307;SDS011;42217;50.422;7.210;2022-07-11T09:19:56;27.10;;;17.73;;
56307;SDS011;42217;50.422;7.210;2022-07-11T09:22:25;28.33;;;16.38;;
56307;SDS011;42217;50.422;7.210;2022-07-11T09:25:10;27.90;;;17.38;;
56307;SDS011;42217;50.422;7.210;2022-07-11T09:28:02;27.80;;;17.60;;
56307;SDS011;42217;50.422;7.210;2022-07-11T09:30:41;25.30;;;16.48;;
56307;SDS011;42217;50.422;7.210;2022-07-11T09:33:10;28.85;;;15.63;;
56307;SDS011;42217;50.422;7.210;2022-07-11T09:35:41;24.67;;;14.05;;
56307;SDS011;42217;50.422;7.210;2022-07-11T09:38:11;27.88;;;14.77;;
56307;SDS011;42217;50.422;7.210;2022-07-11T09:40:42;23.70;;;15.63;;
56307;SDS011;42217;50.422;7.210;2022-07-11T09:43:09;23.13;;;14.38;;
56307;SDS011;42217;50.422;7.210;2022-07-11T09:45:34;19.73;;;13.60;;
56307;SDS011;42217;50.422;7.210;2022-07-11T09:48:06;21.55;;;14.30;;
56307;SDS011;42217;50.422;7.210;2022-07-11T09:50:33;22.63;;;14.95;;
56307;SDS011;42217;50.422;7.210;2022-07-11T09:55:31;19.35;;;14.23;;
56307;SDS011;42217;50.422;7.210;2022-07-11T09:57:59;20.27;;;13.63;;
56307;SDS011;42217;50.422;7.210;2022-07-11T10:00:29;24.00;;;14.23;;
56307;SDS011;42217;50.422;7.210;2022-07-11T10:02:55;28.98;;;13.82;;
56307;SDS011;42217;50.422;7.210;2022-07-11T10:05:23;19.30;;;14.02;;
56307;SDS011;42217;50.422;7.210;2022-07-11T10:07:49;18.48;;;12.93;;
56307;SDS011;42217;50.422;7.210;2022-07-11T10:10:15;20.38;;;14.40;;
56307;SDS011;42217;50.422;7.210;2022-07-11T10:12:43;18.33;;;12.18;;
56307;SDS011;42217;50.422;7.210;2022-07-11T10:15:11;19.88;;;12.60;;
56307;SDS011;42217;50.422;7.210;2022-07-11T10:29:13;17.80;;;11.02;;
56307;SDS011;42217;50.422;7.210;2022-07-11T10:31:42;24.67;;;12.65;;
56307;SDS011;42217;50.422;7.210;2022-07-11T10:34:29;17.35;;;10.27;;
56307;SDS011;42217;50.422;7.210;2022-07-11T10:36:58;15.90;;;10.68;;
56307;SDS011;42217;50.422;7.210;2022-07-11T10:39:34;16.85;;;11.60;;
56307;SDS011;42217;50.422;7.210;2022-07-11T10:42:05;15.35;;;11.38;;
56307;SDS011;42217;50.422;7.210;2022-07-11T10:44:51;14.77;;;11.07;;
56307;SDS011;42217;50.422;7.210;2022-07-11T10:47:32;14.30;;;10.43;;
56307;SDS011;42217;50.422;7.210;2022-07-11T10:52:47;12.50;;;9.40;;
56307;SDS011;42217;50.422;7.210;2022-07-11T10:58:31;14.55;;;9.85;;
56307;SDS011;42217;50.422;7.210;2022-07-11T11:00:31;18.88;;;12.02;;
56307;SDS011;42217;50.422;7.210;2022-07-11T11:02:59;18.00;;;11.32;;
56307;SDS011;42217;50.422;7.210;2022-07-11T11:05:42;15.43;;;10.13;;
56307;SDS011;42217;50.422;7.210;2022-07-11T11:11:07;14.38;;;9.10;;
56307;SDS011;42217;50.422;7.210;2022-07-11T11:13:45;11.82;;;8.27;;
56307;SDS011;42217;50.422;7.210;2022-07-11T11:16:21;10.68;;;7.90;;
56307;SDS011;42217;50.422;7.210;2022-07-11T11:18:48;9.27;;;7.93;;
56307;SDS011;42217;50.422;7.210;2022-07-11T11:26:41;14.88;;;10.65;;
56307;SDS011;42217;50.422;7.210;2022-07-11T11:29:21;15.48;;;11.15;;
56307;SDS011;42217;50.422;7.210;2022-07-11T11:31:55;14.90;;;11.25;;
56307;SDS011;42217;50.422;7.210;2022-07-11T11:34:22;13.35;;;11.55;;
56307;SDS011;42217;50.422;7.210;2022-07-11T11:36:53;14.10;;;12.55;;
56307;SDS011;42217;50.422;7.210;2022-07-11T11:39:25;18.20;;;13.65;;
56307;SDS011;42217;50.422;7.210;2022-07-11T11:42:03;14.60;;;12.82;;
56307;SDS011;42217;50.422;7.210;2022-07-11T11:44:53;16.80;;;13.00;;
56307;SDS011;42217;50.422;7.210;2022-07-11T11:47:21;16.70;;;13.52;;
56307;SDS011;42217;50.422;7.210;2022-07-11T11:49:47;12.90;;;11.60;;
56307;SDS011;42217;50.422;7.210;2022-07-11T11:52:14;16.38;;;13.10;;
56307;SDS011;42217;50.422;7.210;2022-07-11T11:54:52;20.05;;;14.23;;
56307;SDS011;42217;50.422;7.210;2022-07-11T11:57:20;15.52;;;13.13;;
56307;SDS011;42217;50.422;7.210;2022-07-11T11:59:48;20.30;;;14.40;;
56307;SDS011;42217;50.422;7.210;2022-07-11T12:02:20;15.93;;;14.25;;
56307;SDS011;42217;50.422;7.210;2022-07-11T12:04:50;16.98;;;15.15;;
56307;SDS011;42217;50.422;7.210;2022-07-11T12:07:23;19.90;;;16.08;;
56307;SDS011;42217;50.422;7.210;2022-07-11T12:09:51;18.25;;;14.52;;
56307;SDS011;42217;50.422;7.210;2022-07-11T12:12:22;17.35;;;14.75;;
56307;SDS011;42217;50.422;7.210;2022-07-11T12:18:38;17.23;;;14.60;;
56307;SDS011;42217;50.422;7.210;2022-07-11T12:21:10;20.45;;;14.55;;
56307;SDS011;42217;50.422;7.210;2022-07-11T12:23:41;19.98;;;13.85;;
56307;SDS011;42217;50.422;7.210;2022-07-11T12:26:16;18.60;;;14.93;;
56307;SDS011;42217;50.422;7.210;2022-07-11T12:32:10;20.48;;;13.43;;
56307;SDS011;42217;50.422;7.210;2022-07-11T12:37:06;18.38;;;13.80;;
56307;SDS011;42217;50.422;7.210;2022-07-11T12:39:39;16.92;;;12.40;;
56307;SDS011;42217;50.422;7.210;2022-07-11T12:42:37;14.85;;;11.65;;
56307;SDS011;42217;50.422;7.210;2022-07-11T12:50:34;14.32;;;11.32;;
56307;SDS011;42217;50.422;7.210;2022-07-11T12:55:21;13.27;;;10.43;;
56307;SDS011;42217;50.422;7.210;2022-07-11T13:00:57;13.43;;;10.98;;
56307;SDS011;42217;50.422;7.210;2022-07-11T13:03:31;15.07;;;9.52;;
56307;SDS011;42217;50.422;7.210;2022-07-11T13:05:58;10.68;;;8.93;;
56307;SDS011;42217;50.422;7.210;2022-07-11T13:08:28;15.57;;;9.73;;
56307;SDS011;42217;50.422;7.210;2022-07-11T13:13:37;14.40;;;9.13;;
56307;SDS011;42217;50.422;7.210;2022-07-11T13:16:03;9.95;;;6.97;;
56307;SDS011;42217;50.422;7.210;2022-07-11T13:18:30;10.07;;;7.07;;
56307;SDS011;42217;50.422;7.210;2022-07-11T13:20:56;11.48;;;7.47;;
56307;SDS011;42217;50.422;7.210;2022-07-11T13:23:22;7.65;;;6.68;;
56307;SDS011;42217;50.422;7.210;2022-07-11T13:25:48;7.70;;;6.78;;
56307;SDS011;42217;50.422;7.210;2022-07-11T13:28:14;9.35;;;7.03;;
56307;SDS011;42217;50.422;7.210;2022-07-11T13:30:40;16.65;;;7.43;;
56307;SDS011;42217;50.422;7.210;2022-07-11T13:33:06;10.95;;;6.43;;
56307;SDS011;42217;50.422;7.210;2022-07-11T13:35:32;8.60;;;6.63;;
56307;SDS011;42217;50.422;7.210;2022-07-11T13:37:58;9.90;;;7.30;;
56307;SDS011;42217;50.422;7.210;2022-07-11T13:40:24;7.07;;;6.38;;
56307;SDS011;42217;50.422;7.210;2022-07-11T13:42:51;7.82;;;6.22;;
56307;SDS011;42217;50.422;7.210;2022-07-11T13:45:18;12.50;;;7.68;;
56307;SDS011;42217;50.422;7.210;2022-07-11T13:47:46;8.93;;;6.47;;
56307;SDS011;42217;50.422;7.210;2022-07-11T13:50:13;9.57;;;6.40;;
56307;SDS011;42217;50.422;7.210;2022-07-11T13:52:39;9.13;;;6.05;;
56307;SDS011;42217;50.422;7.210;2022-07-11T13:55:06;7.32;;;5.88;;
56307;SDS011;42217;50.422;7.210;2022-07-11T13:57:33;9.88;;;5.53;;
56307;SDS011;42217;50.422;7.210;2022-07-11T13:59:59;9.00;;;4.95;;
56307;SDS011;42217;50.422;7.210;2022-07-11T14:02:25;8.60;;;5.30;;
56307;SDS011;42217;50.422;7.210;2022-07-11T14:04:51;6.38;;;5.50;;
56307;SDS011;42217;50.422;7.210;2022-07-11T14:07:17;5.60;;;5.10;;
56307;SDS011;42217;50.422;7.210;2022-07-11T14:09:42;9.13;;;5.75;;
56307;SDS011;42217;50.422;7.210;2022-07-11T14:12:08;6.78;;;5.47;;
56307;SDS011;42217;50.422;7.210;2022-07-11T14:14:35;8.77;;;5.57;;
56307;SDS011;42217;50.422;7.210;2022-07-11T14:17:01;8.32;;;5.72;;
56307;SDS011;42217;50.422;7.210;2022-07-11T14:19:28;8.63;;;5.35;;
56307;SDS011;42217;50.422;7.210;2022-07-11T14:21:54;9.05;;;5.78;;
56307;SDS011;42217;50.422;7.210;2022-07-11T14:24:19;8.45;;;5.28;;
56307;SDS011;42217;50.422;7.210;2022-07-11T14:26:45;5.60;;;5.05;;
56307;SDS011;42217;50.422;7.210;2022-07-11T14:29:12;7.97;;;5.13;;
56307;SDS011;42217;50.422;7.210;2022-07-11T14:31:39;8.65;;;5.30;;
56307;SDS011;42217;50.422;7.210;2022-07-11T14:34:05;10.73;;;5.88;;
56307;SDS011;42217;50.422;7.210;2022-07-11T14:36:30;7.25;;;5.88;;
56307;SDS011;42217;50.422;7.210;2022-07-11T14:38:56;5.80;;;5.20;;
56307;SDS011;42217;50.422;7.210;2022-07-11T14:41:22;8.48;;;6.22;;
56307;SDS011;42217;50.422;7.210;2022-07-11T14:43:48;9.70;;;5.40;;
56307;SDS011;42217;50.422;7.210;2022-07-11T14:46:14;8.38;;;5.45;;
56307;SDS011;42217;50.422;7.210;2022-07-11T14:48:43;5.60;;;5.10;;
56307;SDS011;42217;50.422;7.210;2022-07-11T14:51:09;5.22;;;4.72;;
56307;SDS011;42217;50.422;7.210;2022-07-11T14:53:35;8.82;;;4.82;;
56307;SDS011;42217;50.422;7.210;2022-07-11T14:56:02;7.13;;;5.10;;
56307;SDS011;42217;50.422;7.210;2022-07-11T14:58:28;6.45;;;4.65;;
56307;SDS011;42217;50.422;7.210;2022-07-11T15:00:54;10.35;;;5.90;;
56307;SDS011;42217;50.422;7.210;2022-07-11T15:03:20;9.48;;;5.18;;
56307;SDS011;42217;50.422;7.210;2022-07-11T15:06:07;6.32;;;5.80;;
56307;SDS011;42217;50.422;7.210;2022-07-11T15:08:34;6.57;;;5.78;;
56307;SDS011;42217;50.422;7.210;2022-07-11T15:11:19;7.85;;;6.60;;
56307;SDS011;42217;50.422;7.210;2022-07-11T15:13:48;7.97;;;6.93;;
56307;SDS011;42217;50.422;7.210;2022-07-11T15:16:13;6.68;;;6.07;;
56307;SDS011;42217;50.422;7.210;2022-07-11T15:18:39;6.03;;;5.43;;
56307;SDS011;42217;50.422;7.210;2022-07-11T15:21:07;8.63;;;7.07;;
56307;SDS011;42217;50.422;7.210;2022-07-11T15:23:33;12.25;;;7.20;;
56307;SDS011;42217;50.422;7.210;2022-07-11T15:25:58;8.23;;;7.10;;
56307;SDS011;42217;50.422;7.210;2022-07-11T15:28:24;11.80;;;7.57;;
56307;SDS011;42217;50.422;7.210;2022-07-11T15:30:50;9.32;;;7.80;;
56307;SDS011;42217;50.422;7.210;2022-07-11T15:33:16;8.48;;;7.60;;
56307;SDS011;42217;50.422;7.210;2022-07-11T15:35:42;8.68;;;7.88;;
56307;SDS011;42217;50.422;7.210;2022-07-11T15:38:08;7.05;;;6.35;;
56307;SDS011;42217;50.422;7.210;2022-07-11T15:40:37;7.60;;;6.70;;
56307;SDS011;42217;50.422;7.210;2022-07-11T15:43:02;7.78;;;7.07;;
56307;SDS011;42217;50.422;7.210;2022-07-11T15:45:28;7.63;;;6.72;;
56307;SDS011;42217;50.422;7.210;2022-07-11T15:47:57;8.00;;;7.20;;
56307;SDS011;42217;50.422;7.210;2022-07-11T15:50:23;10.05;;;7.00;;
56307;SDS011;42217;50.422;7.210;2022-07-11T15:52:50;7.95;;;7.15;;
56307;SDS011;42217;50.422;7.210;2022-07-11T15:55:16;7.50;;;6.47;;
56307;SDS011;42217;50.422;7.210;2022-07-11T15:57:42;6.57;;;5.85;;
56307;SDS011;42217;50.422;7.210;2022-07-11T16:00:08;7.93;;;5.85;;
56307;SDS011;42217;50.422;7.210;2022-07-11T16:02:37;6.95;;;6.20;;
56307;SDS011;42217;50.422;7.210;2022-07-11T16:05:03;9.52;;;5.65;;
56307;SDS011;42217;50.422;7.210;2022-07-11T16:07:30;7.03;;;6.00;;
56307;SDS011;42217;50.422;7.210;2022-07-11T16:09:56;7.65;;;5.95;;
56307;SDS011;42217;50.422;7.210;2022-07-11T16:12:25;8.18;;;6.78;;
56307;SDS011;42217;50.422;7.210;2022-07-11T16:14:51;8.20;;;7.18;;
56307;SDS011;42217;50.422;7.210;2022-07-11T16:17:17;7.85;;;7.07;;
56307;SDS011;42217;50.422;7.210;2022-07-11T16:19:43;6.78;;;6.18;;
56307;SDS011;42217;50.422;7.210;2022-07-11T16:22:10;8.48;;;6.50;;
56307;SDS011;42217;50.422;7.210;2022-07-11T16:24:36;7.47;;;6.53;;
56307;SDS011;42217;50.422;7.210;2022-07-11T16:27:02;9.68;;;7.72;;